Time;durP1;ratioP1;P1;durP2;ratioP2;P2;SDS_P1;SDS_P2;PMS_P1;PMS_P2;Temp;Humidity;BMP_temperature;BMP_pressure;BME280_temperature;BME280_humidity;BME280_pressure;Samples;Min_cycle;Max_cycle;Signal;HPM_P1;HPM_P2
2022/09/19 00:00:34;;;;;;;11.90;2.25;;;10.60;99.90;;;;;;3061132;19;20518;-70
2022/09/19 00:01:40;;;;;;;17.70;2.80;;;11.10;99.90;;;;;;3061071;19;20014;-69
2022/09/19 00:02:42;;;;;;;13.85;2.22;;;10.70;99.90;;;;;;3062868;19;20506;-69
2022/09/19 00:03:47;;;;;;;15.90;2.88;;;10.70;99.90;;;;;;3061637;19;20011;-69
2022/09/19 00:04:49;;;;;;;13.85;2.10;;;10.70;99.90;;;;;;3060975;19;20011;-69
2022/09/19 00:05:54;;;;;;;20.25;2.35;;;10.60;99.90;;;;;;3061381;19;20055;-69
2022/09/19 00:06:59;;;;;;;10.95;2.40;;;10.90;99.90;;;;;;3061051;19;20033;-69
2022/09/19 00:08:00;;;;;;;15.52;2.75;;;10.60;99.90;;;;;;3060895;19;20014;-68
2022/09/19 00:09:06;;;;;;;13.95;2.03;;;10.60;99.90;;;;;;3061803;19;20384;-69
2022/09/19 00:10:11;;;;;;;12.77;2.50;;;10.90;99.90;;;;;;3061152;19;20022;-69
2022/09/19 00:11:16;;;;;;;14.30;2.38;;;10.60;99.90;;;;;;3061110;19;20031;-69
2022/09/19 00:12:19;;;;;;;11.05;2.10;;;10.60;99.90;;;;;;3060457;19;20352;-69
2022/09/19 00:13:21;;;;;;;9.60;1.88;;;10.70;99.90;;;;;;3060644;19;20073;-69
2022/09/19 00:14:29;;;;;;;19.02;2.25;;;10.60;99.90;;;;;;3060275;19;20031;-69
2022/09/19 00:15:33;;;;;;;15.73;2.42;;;10.40;99.90;;;;;;3060437;19;20011;-69
2022/09/19 00:16:41;;;;;;;16.00;2.50;;;10.60;99.90;;;;;;3061829;19;20023;-69
2022/09/19 00:17:43;;;;;;;12.55;2.10;;;11.00;99.90;;;;;;3060574;19;20015;-69
2022/09/19 00:18:47;;;;;;;11.25;2.20;;;10.70;99.90;;;;;;3061522;19;20026;-69
2022/09/19 00:19:48;;;;;;;10.38;1.83;;;10.50;99.90;;;;;;3060811;19;20030;-69
2022/09/19 00:20:52;;;;;;;13.82;2.53;;;10.70;99.90;;;;;;3061510;19;20091;-68
2022/09/19 00:21:55;;;;;;;14.02;2.75;;;10.50;99.90;;;;;;3060717;19;20010;-68
2022/09/19 00:25:33;;;;;;;9.93;2.33;;;10.70;99.90;;;;;;3061018;19;20374;-68
2022/09/19 00:26:35;;;;;;;16.45;2.63;;;10.50;99.90;;;;;;3060552;19;20021;-68
2022/09/19 00:27:39;;;;;;;15.40;3.03;;;10.30;99.90;;;;;;3060418;19;20022;-69
2022/09/19 00:28:42;;;;;;;14.93;2.88;;;10.60;99.90;;;;;;3060840;19;20018;-68
2022/09/19 00:29:49;;;;;;;16.33;2.63;;;10.50;99.90;;;;;;3060699;19;20078;-68
2022/09/19 00:30:50;;;;;;;15.15;2.25;;;10.40;99.90;;;;;;3061025;19;20538;-68
2022/09/19 00:31:54;;;;;;;11.73;2.38;;;10.60;99.90;;;;;;3060746;19;20019;-68
2022/09/19 00:32:58;;;;;;;17.65;2.50;;;10.70;99.90;;;;;;3060169;19;20467;-68
2022/09/19 00:34:05;;;;;;;20.40;2.90;;;10.60;99.90;;;;;;3061475;19;20031;-68
2022/09/19 00:35:08;;;;;;;16.17;2.97;;;10.60;99.90;;;;;;3062668;19;20006;-69
2022/09/19 00:36:11;;;;;;;11.23;2.17;;;10.40;99.90;;;;;;3059861;19;20472;-69
2022/09/19 00:37:13;;;;;;;15.75;2.30;;;11.10;99.90;;;;;;3062594;19;20367;-68
2022/09/19 00:38:17;;;;;;;;;;;10.90;99.90;;;;;;3060768;19;20013;-68
2022/09/19 00:39:19;;;;;;;11.35;2.10;;;10.50;99.90;;;;;;3060558;19;19928;-68
2022/09/19 00:40:23;;;;;;;16.90;3.10;;;10.60;99.90;;;;;;3059904;19;20025;-68
2022/09/19 00:41:25;;;;;;;20.17;3.20;;;10.70;99.90;;;;;;3060162;19;20344;-70
2022/09/19 00:42:30;;;;;;;18.65;2.75;;;10.60;99.90;;;;;;3062124;19;20015;-68
2022/09/19 00:43:48;;;;;;;15.90;2.80;;;10.70;99.90;;;;;;3059273;19;20081;-69
2022/09/19 00:45:03;;;;;;;12.13;2.13;;;10.70;99.90;;;;;;3060290;19;20019;-70
2022/09/19 00:46:04;;;;;;;13.70;2.42;;;10.60;99.90;;;;;;3061655;19;20482;-68
2022/09/19 00:47:14;;;;;;;19.17;2.65;;;10.60;99.90;;;;;;3060023;19;21886;-69
2022/09/19 00:48:19;;;;;;;13.98;2.63;;;10.60;99.90;;;;;;3060086;19;20018;-69
2022/09/19 00:49:24;;;;;;;15.98;2.25;;;10.60;99.90;;;;;;3061584;19;20027;-69
2022/09/19 00:50:28;;;;;;;18.02;3.00;;;10.60;99.90;;;;;;3060112;19;20030;-68
2022/09/19 00:51:37;;;;;;;11.50;2.20;;;10.40;99.90;;;;;;3060398;19;20026;-68
2022/09/19 00:52:43;;;;;;;14.93;2.65;;;11.60;99.90;;;;;;3061060;19;20023;-67
2022/09/19 00:53:49;;;;;;;16.50;2.85;;;10.60;99.90;;;;;;3060511;19;20061;-67
2022/09/19 00:54:51;;;;;;;16.88;2.90;;;10.60;99.90;;;;;;3059545;19;20494;-68
2022/09/19 00:55:57;;;;;;;15.57;2.60;;;10.60;99.90;;;;;;3061291;19;20019;-68
2022/09/19 00:57:00;;;;;;;18.98;2.35;;;10.70;99.90;;;;;;3060468;19;20015;-67
2022/09/19 00:58:10;;;;;;;14.02;3.03;;;10.70;99.90;;;;;;3060476;19;20033;-67
2022/09/19 00:59:11;;;;;;;22.45;2.30;;;10.70;99.90;;;;;;3060942;19;20030;-67
2022/09/19 01:00:17;;;;;;;13.30;1.98;;;10.90;99.90;;;;;;3059195;19;20019;-67
2022/09/19 01:01:19;;;;;;;13.05;2.40;;;10.70;99.90;;;;;;3059624;19;20010;-67
2022/09/19 01:02:28;;;;;;;18.80;2.70;;;10.70;99.90;;;;;;3060277;19;20002;-67
2022/09/19 01:03:33;;;;;;;20.90;2.45;;;10.70;99.90;;;;;;3057036;19;20551;-68
2022/09/19 01:04:35;;;;;;;15.90;2.63;;;10.70;99.90;;;;;;3057577;19;20682;-68
2022/09/19 01:05:50;;;;;;;13.60;2.88;;;10.80;99.90;;;;;;3060161;19;20417;-67
2022/09/19 01:07:07;;;;;;;13.27;2.72;;;10.90;99.90;;;;;;3059309;19;20014;-68
2022/09/19 01:08:36;;;;;;;16.02;2.40;;;11.00;99.90;;;;;;3059441;19;20066;-67
2022/09/19 01:09:47;;;;;;;17.08;2.58;;;10.70;99.90;;;;;;3060112;19;20026;-68
2022/09/19 01:11:12;;;;;;;12.20;2.53;;;10.70;99.90;;;;;;3061068;19;20007;-68
2022/09/19 01:12:37;;;;;;;16.13;2.50;;;10.60;99.90;;;;;;3059513;19;20494;-67
2022/09/19 01:13:47;;;;;;;17.38;2.13;;;10.60;99.90;;;;;;3059486;19;20021;-69
2022/09/19 01:15:13;;;;;;;12.18;2.50;;;10.70;99.90;;;;;;3060181;19;20017;-68
2022/09/19 01:16:26;;;;;;;13.73;2.30;;;10.70;99.90;;;;;;3059557;19;20025;-68
2022/09/19 01:17:46;;;;;;;15.30;2.70;;;10.70;99.90;;;;;;3059340;19;20025;-68
2022/09/19 01:19:01;;;;;;;13.25;2.35;;;10.50;99.90;;;;;;3060132;19;20129;-68
2022/09/19 01:20:24;;;;;;;20.77;2.58;;;10.80;99.90;;;;;;3060039;19;20019;-68
2022/09/19 01:21:41;;;;;;;13.65;2.38;;;10.70;99.90;;;;;;3058757;19;20006;-68
2022/09/19 01:22:55;;;;;;;15.48;2.15;;;10.80;99.90;;;;;;3060049;19;20476;-68
2022/09/19 01:24:21;;;;;;;13.63;2.45;;;10.80;99.90;;;;;;3059469;19;20403;-68
2022/09/19 01:25:31;;;;;;;11.02;2.17;;;10.70;99.90;;;;;;3058397;19;20014;-68
2022/09/19 01:26:53;;;;;;;15.85;2.20;;;10.70;99.90;;;;;;3059816;19;20642;-68
2022/09/19 01:28:18;;;;;;;12.65;2.90;;;10.70;99.90;;;;;;3059980;19;20002;-68
2022/09/19 01:29:22;;;;;;;13.95;2.13;;;10.80;99.90;;;;;;3061083;19;20029;-68
2022/09/19 01:30:27;;;;;;;12.10;2.03;;;;;;;;;;3058849;19;20117;-68
2022/09/19 01:31:30;;;;;;;11.88;1.80;;;11.20;99.90;;;;;;3060281;19;20037;-68
2022/09/19 01:32:37;;;;;;;9.45;1.92;;;10.80;99.90;;;;;;3059764;19;20033;-68
2022/09/19 01:33:40;;;;;;;9.98;2.20;;;10.90;99.90;;;;;;3057646;19;20621;-68
2022/09/19 01:34:49;;;;;;;12.65;2.30;;;11.00;99.90;;;;;;3059365;19;20171;-68
2022/09/19 01:35:53;;;;;;;15.15;3.08;;;10.80;99.90;;;;;;3058260;19;20029;-68
2022/09/19 01:37:04;;;;;;;9.98;2.03;;;10.90;99.90;;;;;;3059797;19;20018;-68
2022/09/19 01:38:09;;;;;;;13.23;2.80;;;11.00;99.90;;;;;;3058623;19;20014;-68
2022/09/19 01:39:15;;;;;;;12.32;2.67;;;10.80;99.90;;;;;;3060080;19;20022;-68
2022/09/19 01:40:17;;;;;;;16.20;2.60;;;10.70;99.90;;;;;;3059060;19;20014;-68
2022/09/19 01:41:22;;;;;;;13.93;2.72;;;11.20;99.90;;;;;;3061606;19;20022;-68
2022/09/19 01:42:23;;;;;;;16.13;2.08;;;10.80;99.90;;;;;;3059562;19;20023;-69
2022/09/19 01:43:30;;;;;;;13.27;2.17;;;11.10;99.90;;;;;;3059911;19;20026;-68
2022/09/19 01:44:32;;;;;;;11.35;2.78;;;11.10;99.90;;;;;;3060932;19;20014;-68
2022/09/19 01:45:38;;;;;;;15.40;2.13;;;10.90;99.90;;;;;;3058882;19;20370;-68
2022/09/19 01:46:52;;;;;;;17.10;2.63;;;10.90;99.90;;;;;;3060719;19;20026;-68
2022/09/19 01:48:06;;;;;;;14.00;2.83;;;11.40;99.90;;;;;;3058392;19;20416;-68
2022/09/19 01:49:20;;;;;;;16.58;2.88;;;11.20;99.90;;;;;;3058529;19;20019;-68
2022/09/19 01:50:34;;;;;;;15.20;2.53;;;11.10;99.90;;;;;;3059294;19;20023;-68
2022/09/19 01:51:44;;;;;;;17.27;2.63;;;10.80;99.90;;;;;;3058727;19;20014;-68
2022/09/19 01:52:59;;;;;;;11.18;2.33;;;11.10;99.90;;;;;;3061295;19;20013;-68
2022/09/19 01:54:15;;;;;;;17.25;2.85;;;11.20;99.90;;;;;;3059112;19;20705;-68
2022/09/19 01:55:24;;;;;;;16.20;2.92;;;10.90;99.90;;;;;;3058617;19;20010;-69
2022/09/19 01:56:39;;;;;;;18.20;3.70;;;11.10;99.90;;;;;;3060361;19;20038;-69
2022/09/19 01:57:48;;;;;;;22.48;3.08;;;10.90;99.90;;;;;;3059485;19;20015;-69
2022/09/19 01:59:06;;;;;;;17.67;2.67;;;11.60;99.90;;;;;;3059484;19;20018;-69
2022/09/19 02:00:11;;;;;;;14.18;2.50;;;11.20;99.90;;;;;;3058619;19;20366;-69
2022/09/19 02:01:28;;;;;;;18.13;2.70;;;10.90;99.90;;;;;;3060508;19;20471;-68
2022/09/19 02:03:04;;;;;;;10.52;2.10;;;11.20;99.90;;;;;;3059847;19;20032;-68
2022/09/19 02:04:13;;;;;;;14.18;2.30;;;11.20;99.90;;;;;;3057662;19;20045;-68
2022/09/19 02:05:28;;;;;;;15.45;2.63;;;11.30;99.90;;;;;;3058984;19;20006;-68
2022/09/19 02:06:42;;;;;;;11.75;2.53;;;11.30;99.90;;;;;;3060183;19;20018;-68
2022/09/19 02:07:56;;;;;;;19.50;3.05;;;11.20;99.90;;;;;;3059653;19;20018;-68
2022/09/19 02:09:03;;;;;;;15.70;2.42;;;11.20;99.90;;;;;;3059059;19;20019;-68
2022/09/19 02:10:11;;;;;;;14.23;2.30;;;11.20;99.90;;;;;;3058632;19;20030;-68
2022/09/19 02:11:17;;;;;;;17.65;2.85;;;11.30;99.90;;;;;;3059473;19;20022;-68
2022/09/19 02:12:22;;;;;;;17.85;2.70;;;11.30;99.90;;;;;;3057118;19;20018;-68
2022/09/19 02:13:27;;;;;;;18.52;3.00;;;11.10;99.90;;;;;;3057615;19;20070;-68
2022/09/19 02:14:39;;;;;;;13.90;2.78;;;11.30;99.90;;;;;;3056237;19;20507;-68
2022/09/19 02:15:46;;;;;;;15.80;2.83;;;11.30;99.90;;;;;;3058502;19;20025;-69
2022/09/19 02:16:58;;;;;;;13.20;2.63;;;11.30;99.90;;;;;;3059104;19;20010;-69
2022/09/19 02:18:05;;;;;;;15.90;2.90;;;11.30;99.90;;;;;;3058861;19;20404;-69
2022/09/19 02:19:15;;;;;;;13.35;2.55;;;11.30;99.90;;;;;;3059449;19;20013;-68
2022/09/19 02:20:22;;;;;;;13.70;2.67;;;11.30;99.90;;;;;;3059023;19;20018;-69
2022/09/19 02:21:37;;;;;;;17.20;3.15;;;11.40;99.90;;;;;;3059496;19;20010;-68
2022/09/19 02:22:45;;;;;;;14.65;2.05;;;11.30;99.90;;;;;;3057970;19;20364;-68
2022/09/19 02:23:53;;;;;;;14.68;2.35;;;11.10;99.90;;;;;;3059245;19;20021;-68
2022/09/19 02:24:58;;;;;;;14.70;2.35;;;11.30;99.90;;;;;;3059702;19;20007;-68
2022/09/19 02:26:06;;;;;;;12.80;2.80;;;11.30;99.90;;;;;;3059472;19;20027;-68
2022/09/19 02:27:15;;;;;;;15.30;1.85;;;11.30;99.90;;;;;;3058694;19;20002;-68
2022/09/19 02:28:22;;;;;;;15.73;2.95;;;11.20;99.90;;;;;;3059713;19;20026;-68
2022/09/19 02:29:30;;;;;;;10.75;2.08;;;11.20;99.90;;;;;;3057719;19;20089;-68
2022/09/19 02:30:37;;;;;;;16.88;2.60;;;11.30;99.90;;;;;;3060589;19;20475;-68
2022/09/19 02:31:40;;;;;;;14.68;2.25;;;11.30;99.90;;;;;;3059241;19;20002;-68
2022/09/19 02:32:46;;;;;;;11.75;2.20;;;11.20;99.90;;;;;;3058044;19;20015;-68
2022/09/19 02:33:48;;;;;;;16.00;2.40;;;11.30;99.90;;;;;;3059058;19;20011;-69
2022/09/19 02:34:53;;;;;;;18.20;2.70;;;11.00;99.90;;;;;;3058905;19;20021;-69
2022/09/19 02:36:05;;;;;;;20.23;2.75;;;10.90;99.90;;;;;;3059105;19;20007;-68
2022/09/19 02:37:13;;;;;;;18.95;3.05;;;11.40;99.90;;;;;;3058898;19;20372;-68
2022/09/19 02:38:23;;;;;;;15.05;2.95;;;11.20;99.90;;;;;;3058927;19;20010;-68
2022/09/19 02:39:30;;;;;;;15.32;2.33;;;11.30;99.90;;;;;;3058755;19;20021;-68
2022/09/19 02:40:36;;;;;;;13.57;2.38;;;11.40;99.90;;;;;;3058027;19;20035;-68
2022/09/19 02:41:47;;;;;;;15.63;2.83;;;11.10;99.90;;;;;;3058785;19;20518;-69
2022/09/19 02:42:54;;;;;;;14.90;2.28;;;11.20;99.90;;;;;;3057131;19;20010;-68
2022/09/19 02:44:03;;;;;;;20.25;2.75;;;11.30;99.90;;;;;;3059499;19;20025;-68
2022/09/19 02:45:12;;;;;;;13.85;2.70;;;11.20;99.90;;;;;;3058829;19;20022;-68
2022/09/19 02:46:22;;;;;;;15.77;2.55;;;11.10;99.90;;;;;;3058077;19;20035;-68
2022/09/19 02:47:26;;;;;;;13.00;2.90;;;11.70;99.90;;;;;;3058210;19;20014;-68
2022/09/19 02:48:36;;;;;;;13.30;2.17;;;11.20;99.90;;;;;;3058812;19;20081;-68
2022/09/19 02:49:42;;;;;;;14.60;2.67;;;11.20;99.90;;;;;;3057953;19;20022;-68
2022/09/19 02:50:54;;;;;;;11.20;2.08;;;11.60;99.90;;;;;;3058315;19;20038;-68
2022/09/19 02:52:00;;;;;;;14.95;2.08;;;11.30;99.90;;;;;;3058642;19;20077;-68
2022/09/19 02:53:09;;;;;;;15.60;2.20;;;11.00;99.90;;;;;;3058243;19;20014;-68
2022/09/19 02:54:15;;;;;;;19.02;2.97;;;11.30;99.90;;;;;;3058603;19;20024;-68
2022/09/19 02:55:25;;;;;;;18.25;2.83;;;11.20;99.90;;;;;;3058836;19;20044;-68
2022/09/19 02:56:33;;;;;;;15.07;2.60;;;11.20;99.90;;;;;;3060301;19;20018;-68
2022/09/19 02:57:37;;;;;;;13.52;1.98;;;11.70;99.90;;;;;;3058675;19;20006;-68
2022/09/19 02:58:45;;;;;;;14.00;3.00;;;11.60;99.90;;;;;;3058648;19;20006;-68
2022/09/19 02:59:52;;;;;;;13.82;2.78;;;11.20;99.90;;;;;;3058137;19;20528;-68
2022/09/19 03:00:59;;;;;;;15.48;2.50;;;11.30;99.90;;;;;;3060748;19;20482;-68
2022/09/19 03:02:11;;;;;;;18.80;3.08;;;11.60;99.90;;;;;;3058830;19;20015;-68
2022/09/19 03:04:41;;;;;;;17.13;3.10;;;11.30;99.90;;;;;;3060352;19;20021;-68
2022/09/19 03:05:44;;;;;;;12.88;2.08;;;11.20;99.90;;;;;;3059852;19;20011;-68
2022/09/19 03:06:58;;;;;;;16.15;2.40;;;11.20;99.90;;;;;;3058463;19;20010;-68
2022/09/19 03:08:03;;;;;;;14.10;2.40;;;11.30;99.90;;;;;;3058629;19;20003;-68
2022/09/19 03:09:08;;;;;;;13.68;2.95;;;11.30;99.90;;;;;;3058271;19;20434;-68
2022/09/19 03:10:15;;;;;;;14.38;2.58;;;11.60;99.90;;;;;;3058672;19;20007;-68
2022/09/19 03:11:20;;;;;;;16.85;2.88;;;11.30;99.90;;;;;;3058879;19;20007;-69
2022/09/19 03:12:30;;;;;;;13.77;2.20;;;11.20;99.90;;;;;;3058126;19;20049;-69
2022/09/19 03:13:33;;;;;;;16.10;2.22;;;11.30;99.90;;;;;;3059299;19;20036;-68
2022/09/19 03:14:38;;;;;;;12.25;2.40;;;11.40;99.90;;;;;;3058781;19;20010;-69
2022/09/19 03:15:48;;;;;;;15.63;2.50;;;11.40;99.90;;;;;;3057829;19;20002;-68
2022/09/19 03:16:56;;;;;;;17.38;2.42;;;11.40;99.90;;;;;;3057763;19;20468;-68
2022/09/19 03:18:01;;;;;;;14.60;2.50;;;11.30;99.90;;;;;;3058018;19;20007;-69
2022/09/19 03:19:07;;;;;;;13.00;2.85;;;11.40;99.90;;;;;;3058397;19;20014;-70
2022/09/19 03:20:11;;;;;;;18.70;2.45;;;11.30;99.90;;;;;;3058535;19;20013;-69
2022/09/19 03:21:21;;;;;;;12.45;2.15;;;11.40;99.90;;;;;;3058493;19;20014;-71
2022/09/19 03:22:22;;;;;;;18.55;3.05;;;11.70;99.90;;;;;;3058354;19;20014;-70
2022/09/19 03:23:32;;;;;;;14.85;2.35;;;11.60;99.90;;;;;;3059154;19;20506;-70
2022/09/19 03:24:35;;;;;;;14.23;2.70;;;;;;;;;;3058289;19;20015;-70
2022/09/19 03:25:39;;;;;;;12.70;3.00;;;11.50;99.90;;;;;;3058424;19;20014;-69
2022/09/19 03:26:40;;;;;;;15.32;2.72;;;11.70;99.90;;;;;;3058120;19;20006;-71
2022/09/19 03:27:45;;;;;;;15.50;2.30;;;11.30;99.90;;;;;;3056687;19;20418;-69
2022/09/19 03:28:46;;;;;;;18.80;2.40;;;11.00;99.90;;;;;;3058503;19;20098;-68
2022/09/19 03:29:50;;;;;;;16.13;2.40;;;11.30;99.90;;;;;;3057270;19;20530;-69
2022/09/19 03:30:56;;;;;;;17.52;2.58;;;11.50;99.90;;;;;;3058464;19;20070;-68
2022/09/19 03:32:00;;;;;;;16.30;2.90;;;11.40;99.90;;;;;;3058315;19;20003;-69
2022/09/19 03:33:05;;;;;;;17.27;2.80;;;11.30;99.90;;;;;;3057164;19;20026;-69
2022/09/19 03:34:10;;;;;;;18.75;2.60;;;11.30;99.90;;;;;;3053706;19;20776;-69
2022/09/19 03:35:14;;;;;;;18.98;2.92;;;11.50;99.90;;;;;;3056278;19;20037;-69
2022/09/19 03:36:18;;;;;;;15.00;2.20;;;11.40;99.90;;;;;;3058566;19;20002;-68
2022/09/19 03:37:19;;;;;;;12.30;2.35;;;11.10;99.90;;;;;;3058027;19;20015;-69
2022/09/19 03:38:23;;;;;;;19.60;2.95;;;11.30;99.90;;;;;;3058235;19;20058;-69
2022/09/19 03:39:24;;;;;;;16.02;2.63;;;11.10;99.90;;;;;;3058142;19;20006;-69
2022/09/19 03:40:28;;;;;;;16.80;2.25;;;11.50;99.90;;;;;;3058458;19;20026;-68
2022/09/19 03:41:30;;;;;;;13.82;2.17;;;11.10;99.90;;;;;;3058137;19;20011;-69
2022/09/19 03:42:37;;;;;;;;;;;11.60;99.90;;;;;;3059115;19;20014;-69
2022/09/19 03:43:38;;;;;;;14.85;2.28;;;11.00;99.90;;;;;;3060293;19;19978;-68
2022/09/19 03:44:42;;;;;;;13.05;2.22;;;11.00;99.90;;;;;;3058341;19;20016;-68
2022/09/19 03:45:44;;;;;;;16.55;2.30;;;11.40;99.90;;;;;;3058253;19;20479;-70
2022/09/19 03:46:48;;;;;;;16.17;2.55;;;11.50;99.90;;;;;;3058262;19;20002;-70
2022/09/19 03:47:49;;;;;;;17.60;2.53;;;11.50;99.90;;;;;;3057759;19;20010;-68
2022/09/19 03:48:56;;;;;;;18.17;2.83;;;11.30;99.90;;;;;;3058448;19;20194;-69
2022/09/19 03:49:58;;;;;;;17.77;2.40;;;11.30;99.90;;;;;;3058837;19;20007;-68
2022/09/19 03:51:02;;;;;;;13.52;2.30;;;11.20;99.90;;;;;;3058353;19;20020;-68
2022/09/19 03:52:06;;;;;;;18.10;2.33;;;11.20;99.90;;;;;;3058613;19;20085;-69
2022/09/19 03:53:11;;;;;;;16.02;2.72;;;11.60;99.90;;;;;;3058472;19;20030;-69
2022/09/19 03:54:15;;;;;;;20.17;2.47;;;11.20;99.90;;;;;;3058495;19;20010;-68
2022/09/19 03:55:17;;;;;;;14.65;2.35;;;11.20;99.90;;;;;;3057423;19;20018;-69
2022/09/19 03:56:21;;;;;;;15.25;2.63;;;11.30;99.90;;;;;;3057511;19;20010;-68
2022/09/19 03:57:22;;;;;;;11.45;2.30;;;11.30;99.90;;;;;;3058410;19;20022;-69
2022/09/19 03:58:26;;;;;;;16.58;2.53;;;11.50;99.90;;;;;;3059233;19;20507;-69
2022/09/19 03:59:28;;;;;;;16.20;2.60;;;11.30;99.90;;;;;;3058323;19;20093;-69
2022/09/19 04:00:32;;;;;;;15.65;3.05;;;11.30;99.90;;;;;;3057971;19;20495;-69
2022/09/19 04:01:33;;;;;;;15.80;2.47;;;11.40;99.90;;;;;;3057901;19;20039;-69
2022/09/19 04:02:37;;;;;;;14.80;2.95;;;11.30;99.90;;;;;;3057672;19;20014;-68
2022/09/19 04:03:39;;;;;;;13.63;2.33;;;11.10;99.90;;;;;;3059039;19;20015;-68
2022/09/19 04:04:46;;;;;;;15.82;2.80;;;11.30;99.90;;;;;;3058244;19;20419;-69
2022/09/19 04:05:47;;;;;;;11.68;2.13;;;11.20;99.90;;;;;;3057821;19;20015;-69
2022/09/19 04:06:51;;;;;;;13.07;2.42;;;11.50;99.90;;;;;;3058198;19;20018;-69
2022/09/19 04:07:52;;;;;;;16.58;2.22;;;11.40;99.90;;;;;;3058960;19;20015;-68
2022/09/19 04:08:56;;;;;;;11.55;2.53;;;11.30;99.90;;;;;;3057972;19;20011;-69
2022/09/19 04:09:58;;;;;;;16.83;2.33;;;11.10;99.90;;;;;;3057288;19;20015;-68
2022/09/19 04:11:03;;;;;;;13.50;2.53;;;11.30;99.90;;;;;;3057818;19;20011;-69
2022/09/19 04:12:04;;;;;;;15.13;2.25;;;11.30;99.90;;;;;;3059195;19;20010;-68
2022/09/19 04:13:08;;;;;;;15.48;2.42;;;11.30;99.90;;;;;;3057690;19;20011;-68
2022/09/19 04:14:09;;;;;;;16.35;2.55;;;11.20;99.90;;;;;;3058075;19;20018;-68
2022/09/19 04:15:13;;;;;;;13.70;2.75;;;11.40;99.90;;;;;;3057687;19;20014;-70
2022/09/19 04:16:17;;;;;;;11.38;1.85;;;11.30;99.90;;;;;;3057734;19;20011;-69
2022/09/19 04:17:21;;;;;;;14.40;2.28;;;11.50;99.90;;;;;;3057257;19;20483;-69
2022/09/19 04:18:22;;;;;;;13.88;2.05;;;11.40;99.90;;;;;;3057981;19;20047;-69
2022/09/19 04:19:28;;;;;;;7.80;1.80;;;11.30;99.90;;;;;;3057803;19;20014;-69
2022/09/19 04:20:33;;;;;;;11.77;2.20;;;11.40;99.90;;;;;;3057897;19;20348;-69
2022/09/19 04:21:38;;;;;;;13.90;2.33;;;11.30;99.90;;;;;;3057557;19;20010;-69
2022/09/19 04:22:39;;;;;;;12.90;1.92;;;11.30;99.90;;;;;;3058067;19;20007;-69
2022/09/19 04:23:43;;;;;;;13.27;1.98;;;11.40;99.90;;;;;;3057982;19;20003;-69
2022/09/19 04:24:45;;;;;;;13.75;2.55;;;11.40;99.90;;;;;;3057993;19;20002;-69
2022/09/19 04:25:49;;;;;;;10.90;1.70;;;11.40;99.90;;;;;;3057776;19;20543;-69
2022/09/19 04:26:51;;;;;;;8.43;1.65;;;11.30;99.90;;;;;;3057976;19;20011;-69
2022/09/19 04:27:54;;;;;;;11.88;1.95;;;11.40;99.90;;;;;;3057588;19;20014;-69
2022/09/19 04:28:56;;;;;;;12.30;1.73;;;11.40;99.90;;;;;;3057871;19;20002;-69
2022/09/19 04:30:00;;;;;;;;;;;11.60;99.90;;;;;;3057180;19;20007;-69
2022/09/19 04:31:02;;;;;;;11.70;1.80;;;11.30;99.90;;;;;;3056831;19;20272;-70
2022/09/19 04:32:06;;;;;;;14.30;2.63;;;11.00;99.90;;;;;;3058230;19;20019;-69
2022/09/19 04:33:10;;;;;;;11.20;2.47;;;11.30;99.90;;;;;;3057865;19;20003;-69
2022/09/19 04:34:14;;;;;;;12.88;1.98;;;11.70;99.90;;;;;;3057917;19;20003;-69
2022/09/19 04:35:16;;;;;;;8.80;1.90;;;11.10;99.90;;;;;;3058603;19;20078;-68
2022/09/19 04:36:23;;;;;;;10.32;1.60;;;11.70;99.90;;;;;;3057786;19;20025;-68
2022/09/19 04:37:25;;;;;;;10.93;2.10;;;11.20;99.90;;;;;;3057593;19;20510;-68
2022/09/19 04:38:31;;;;;;;10.90;1.77;;;11.40;99.90;;;;;;3058169;19;20376;-68
2022/09/19 04:39:32;;;;;;;9.10;1.88;;;11.30;99.90;;;;;;3060866;19;20089;-68
2022/09/19 04:40:40;;;;;;;10.63;1.63;;;11.30;99.90;;;;;;3060840;19;20289;-68
2022/09/19 04:41:42;;;;;;;12.98;2.05;;;11.50;99.90;;;;;;3060877;19;20026;-68
2022/09/19 04:42:46;;;;;;;12.27;1.95;;;11.50;99.90;;;;;;3060766;19;20019;-68
2022/09/19 04:43:50;;;;;;;10.73;1.98;;;11.20;99.90;;;;;;3060596;19;20022;-68
2022/09/19 04:44:53;;;;;;;8.75;1.80;;;11.40;99.90;;;;;;3058419;19;20460;-69
2022/09/19 04:45:58;;;;;;;13.18;2.38;;;11.30;99.90;;;;;;3060651;19;20010;-68
2022/09/19 04:46:59;;;;;;;16.08;2.33;;;11.40;99.90;;;;;;3061075;19;20022;-69
2022/09/19 04:48:05;;;;;;;12.20;2.22;;;11.30;99.90;;;;;;3060508;19;20003;-69
2022/09/19 04:49:07;;;;;;;10.77;1.90;;;11.60;99.90;;;;;;3060511;19;20011;-68
2022/09/19 04:50:11;;;;;;;8.50;1.85;;;11.40;99.90;;;;;;3058922;19;20082;-68
2022/09/19 04:51:12;;;;;;;7.00;1.80;;;11.30;99.90;;;;;;3059608;19;20014;-68
2022/09/19 04:52:19;;;;;;;12.05;2.13;;;11.40;99.90;;;;;;3060427;19;20023;-68
2022/09/19 04:53:23;;;;;;;12.55;1.90;;;11.60;99.90;;;;;;3060513;19;20010;-68
2022/09/19 04:54:27;;;;;;;10.35;2.17;;;11.50;99.90;;;;;;3060180;19;20500;-69
2022/09/19 04:55:30;;;;;;;12.27;2.25;;;10.60;99.90;;;;;;3060664;19;20495;-68
2022/09/19 04:56:34;;;;;;;15.98;2.95;;;11.30;99.90;;;;;;3060213;19;20011;-68
2022/09/19 04:57:35;;;;;;;6.10;1.60;;;11.30;99.90;;;;;;3060561;19;20002;-68
2022/09/19 04:58:40;;;;;;;11.07;2.05;;;11.30;99.90;;;;;;3059932;19;20029;-69
2022/09/19 04:59:41;;;;;;;11.93;1.80;;;11.40;99.90;;;;;;3059490;19;20021;-68
2022/09/19 05:00:46;;;;;;;15.27;2.13;;;11.70;99.90;;;;;;3059481;19;20025;-69
2022/09/19 05:01:51;;;;;;;11.93;1.75;;;11.70;99.90;;;;;;3058533;19;20022;-69
2022/09/19 05:02:56;;;;;;;11.05;2.10;;;11.40;99.90;;;;;;3060379;19;20534;-69
2022/09/19 05:03:58;;;;;;;11.77;2.15;;;11.60;99.90;;;;;;3060402;19;20010;-68
2022/09/19 05:05:02;;;;;;;13.55;1.73;;;11.40;99.90;;;;;;3059536;19;20019;-69
2022/09/19 05:06:06;;;;;;;14.60;1.80;;;11.40;99.90;;;;;;3061740;19;20011;-68
2022/09/19 05:07:13;;;;;;;14.93;2.17;;;11.30;99.90;;;;;;3060248;19;20030;-68
2022/09/19 05:08:20;;;;;;;12.45;1.98;;;11.30;99.90;;;;;;3061159;19;20022;-69
2022/09/19 05:09:24;;;;;;;9.15;1.80;;;11.30;99.90;;;;;;3059136;19;21843;-68
2022/09/19 05:10:26;;;;;;;12.32;2.42;;;11.40;99.90;;;;;;3060404;19;20015;-69
2022/09/19 05:11:30;;;;;;;9.90;1.65;;;11.20;99.90;;;;;;3058295;19;20022;-69
2022/09/19 05:12:31;;;;;;;13.18;2.00;;;11.20;99.90;;;;;;3059403;19;20011;-69
2022/09/19 05:13:37;;;;;;;11.18;2.28;;;11.40;99.90;;;;;;3059257;19;20014;-69
2022/09/19 05:14:41;;;;;;;19.27;2.30;;;11.80;99.90;;;;;;3059464;19;20014;-69
2022/09/19 05:15:44;;;;;;;12.13;2.05;;;11.10;99.90;;;;;;3060140;19;20022;-69
2022/09/19 05:16:50;;;;;;;14.57;2.05;;;11.40;99.90;;;;;;3058078;19;20014;-69
2022/09/19 05:17:53;;;;;;;14.90;2.15;;;11.40;99.90;;;;;;3061381;19;20033;-70
2022/09/19 05:18:57;;;;;;;17.85;3.08;;;11.40;99.90;;;;;;3060359;19;20090;-69
2022/09/19 05:19:58;;;;;;;12.82;2.45;;;11.30;99.90;;;;;;3059977;19;20510;-69
2022/09/19 05:21:06;;;;;;;12.88;2.10;;;11.20;99.90;;;;;;3060548;19;20479;-69
2022/09/19 05:22:07;;;;;;;14.55;2.33;;;11.40;99.90;;;;;;3060054;19;20082;-69
2022/09/19 05:23:11;;;;;;;14.57;2.40;;;11.40;99.90;;;;;;3059965;19;20021;-69
2022/09/19 05:24:16;;;;;;;11.38;2.30;;;11.40;99.90;;;;;;3058628;19;20022;-69
2022/09/19 05:25:20;;;;;;;10.32;2.28;;;11.40;99.90;;;;;;3060791;19;20031;-69
2022/09/19 05:26:22;;;;;;;11.50;2.20;;;;;;;;;;3058344;19;20019;-69
2022/09/19 05:27:26;;;;;;;;;;;11.40;99.90;;;;;;3059029;19;20018;-68
2022/09/19 05:28:28;;;;;;;13.30;2.20;;;11.30;99.90;;;;;;3058433;19;19926;-69
2022/09/19 05:29:32;;;;;;;15.32;1.92;;;11.30;99.90;;;;;;3056496;19;20433;-69
2022/09/19 05:30:36;;;;;;;14.05;2.47;;;11.30;99.90;;;;;;3059184;19;20014;-69
2022/09/19 05:31:40;;;;;;;8.13;1.98;;;11.30;99.90;;;;;;3059538;19;20361;-68
2022/09/19 05:32:44;;;;;;;13.48;2.70;;;11.40;99.90;;;;;;3060992;19;20027;-68
2022/09/19 05:33:49;;;;;;;10.05;1.83;;;11.50;99.90;;;;;;3060065;19;20007;-68
2022/09/19 05:34:50;;;;;;;11.07;1.90;;;11.40;99.90;;;;;;3059932;19;20007;-68
2022/09/19 05:35:55;;;;;;;11.27;1.90;;;11.20;99.90;;;;;;3058527;19;20456;-68
2022/09/19 05:36:57;;;;;;;15.10;2.30;;;11.40;99.90;;;;;;3058863;19;20027;-69
2022/09/19 05:38:02;;;;;;;11.23;2.35;;;11.60;99.90;;;;;;3056400;19;20011;-68
2022/09/19 05:39:03;;;;;;;11.98;2.25;;;11.50;99.90;;;;;;3055655;19;20030;-68
2022/09/19 05:40:11;;;;;;;9.85;2.17;;;11.50;99.90;;;;;;3059630;19;20402;-68
2022/09/19 05:41:16;;;;;;;13.60;2.75;;;11.30;99.90;;;;;;3059708;19;20090;-68
2022/09/19 05:42:17;;;;;;;15.25;2.50;;;11.20;99.90;;;;;;3059686;19;20033;-68
2022/09/19 05:43:22;;;;;;;10.18;2.00;;;11.70;99.90;;;;;;3058919;19;20018;-68
2022/09/19 05:44:23;;;;;;;12.55;1.95;;;11.50;99.90;;;;;;3058716;19;20077;-68
2022/09/19 05:45:27;;;;;;;11.43;1.98;;;11.60;99.90;;;;;;3059718;19;20027;-68